Greenbay, Virginia
Current Conditions -  °F | °C
As of 11:35 AM on Saturday 22 Nov 2014 (Local Time) from KW81 Reporting Station
Clear Clear  
Wind Chill: 38°   Ceiling: Unl
Heat Index: 43°   Visibility: 10mi
Dew Point: 11°   Wind: 8mph
Humidity: 28%   Direction: 210°SSW
Pressure: 30.5"   Gusts: NA
Location:  37.131°N, 78.3033°W
Report Text: KW81 221635Z AUTO 21007KT 10SM CLR 06/M11 A3050 RMK AO1 T00601114
Loading
Personal Weather Stations






























Interactive Weather Map New forecast layout! Learn more

10-Day Weather Forecast

Advertisements
Track Severe Weather on mobile